createdAt,value
2022-08-04T00:01:53.863Z,98430.47
2022-08-04T00:04:38.981Z,98424.81
2022-08-04T00:07:19.558Z,98427.06
2022-08-04T00:10:07.508Z,98426.69
2022-08-04T00:12:42.424Z,98433.88
2022-08-04T00:15:14.861Z,98435.66
2022-08-04T00:17:59.669Z,98427.13
2022-08-04T00:20:32.023Z,98431.19
2022-08-04T00:23:00.300Z,98428.53
2022-08-04T00:25:27.754Z,98426.97
2022-08-04T00:27:55.479Z,98434.88
2022-08-04T00:30:22.364Z,98427.84
2022-08-04T00:32:49.678Z,98430.22
2022-08-04T00:35:16.998Z,98432.81
2022-08-04T00:37:47.378Z,98436.06
2022-08-04T00:40:24.132Z,98433.66
2022-08-04T00:43:21.102Z,98436.50
2022-08-04T00:46:15.503Z,98436.91
2022-08-04T00:48:53.417Z,98430.78
2022-08-04T00:51:33.382Z,98433.75
2022-08-04T00:54:10.907Z,98434.25
2022-08-04T00:57:29.897Z,98438.75
2022-08-04T01:00:13.235Z,98438.88
2022-08-04T01:02:49.824Z,98441.84
2022-08-04T01:05:38.010Z,98449.25
2022-08-04T01:08:29.898Z,98445.22
2022-08-04T01:11:05.528Z,98449.25
2022-08-04T01:13:47.091Z,98445.31
2022-08-04T01:16:17.445Z,98444.81
2022-08-04T01:18:53.117Z,98448.06
2022-08-04T01:21:51.369Z,98443.16
2022-08-04T01:24:17.901Z,98450.63
2022-08-04T01:26:57.761Z,98450.72
2022-08-04T01:29:41.556Z,98441.97
2022-08-04T01:33:28.027Z,98444.44
2022-08-04T01:36:04.836Z,98447.97
2022-08-04T01:38:36.649Z,98442.94
2022-08-04T01:41:08.097Z,98449.16
2022-08-04T01:43:41.063Z,98450.53
2022-08-04T01:46:11.730Z,98444.53
2022-08-04T01:48:39.815Z,98450.53
2022-08-04T01:51:08.864Z,98446.78
2022-08-04T01:53:43.192Z,98448.16
2022-08-04T01:56:11.501Z,98453.06
2022-08-04T01:58:40.504Z,98453.38
2022-08-04T02:01:10.184Z,98445.41
2022-08-04T02:04:19.809Z,98444.22
2022-08-04T02:06:46.421Z,98446.88
2022-08-04T02:09:24.765Z,98440.47
2022-08-04T02:12:05.761Z,98442.94
2022-08-04T02:14:55.384Z,98452.97
2022-08-04T02:17:45.106Z,98446.47
2022-08-04T02:20:25.296Z,98449.25
2022-08-04T02:23:05.576Z,98442.94
2022-08-04T02:25:42.084Z,98447.50
2022-08-04T02:28:33.358Z,98439.25
2022-08-04T02:31:18.036Z,98447.09
2022-08-04T02:33:46.889Z,98440.31
2022-08-04T02:36:30.962Z,98445.59
2022-08-04T02:39:01.658Z,98431.66
2022-08-04T02:41:30.254Z,98436.44
2022-08-04T02:44:02.346Z,98445.28
2022-08-04T02:46:30.061Z,98441.84
2022-08-04T02:48:57.362Z,98437.94
2022-08-04T02:51:34.788Z,98438.47
2022-08-04T02:54:04.021Z,98431.09
2022-08-04T02:56:32.428Z,98442.03
2022-08-04T02:59:05.701Z,98437.84
2022-08-04T03:01:33.434Z,98440.50
2022-08-04T03:04:25.111Z,98437.38
2022-08-04T03:07:07.082Z,98436.16
2022-08-04T03:09:56.232Z,98438.81
2022-08-04T03:12:39.494Z,98429.50
2022-08-04T03:15:24.612Z,98432.81
2022-08-04T03:18:16.023Z,98438.38
2022-08-04T03:20:56.552Z,98438.97
2022-08-04T03:23:35.936Z,98431.09
2022-08-04T03:26:20.778Z,98432.44
2022-08-04T03:29:06.335Z,98428.66
2022-08-04T03:31:57.114Z,98431.78
2022-08-04T03:34:52.358Z,98437.06
2022-08-04T03:37:54.364Z,98442.75
2022-08-04T03:40:53.361Z,98445.91
2022-08-04T03:43:58.776Z,98443.59
2022-08-04T03:46:46.633Z,98449.66
2022-08-04T03:49:52.043Z,98446.59
2022-08-04T03:53:11.565Z,98447.13
2022-08-04T03:56:03.030Z,98451.13
2022-08-04T03:59:06.209Z,98450.56
2022-08-04T04:02:02.936Z,98449.47
2022-08-04T04:04:59.318Z,98448.69
2022-08-04T04:07:44.925Z,98450.63
2022-08-04T04:11:03.380Z,98447.44
2022-08-04T04:14:00.148Z,98442.28
2022-08-04T04:16:32.492Z,98449.41
2022-08-04T04:19:13.777Z,98445.66
2022-08-04T04:21:52.297Z,98445.19
2022-08-04T04:24:46.828Z,98443.53
2022-08-04T04:27:34.962Z,98438.81
2022-08-04T04:30:05.126Z,98446.38
2022-08-04T04:32:34.288Z,98444.47
2022-08-04T04:35:33.748Z,98439.69
2022-08-04T04:38:21.388Z,98440.22
2022-08-04T04:41:05.677Z,98442.59
2022-08-04T04:43:51.378Z,98449.44
2022-08-04T04:46:38.150Z,98459.81
2022-08-04T04:49:29.151Z,98458.75
2022-08-04T04:52:13.294Z,98468.50
2022-08-04T04:54:50.467Z,98462.97
2022-08-04T04:57:53.499Z,98469.91
2022-08-04T05:03:20.423Z,98463.94
2022-08-04T05:06:00.304Z,98471.25
2022-08-04T05:08:54.202Z,98474.16
2022-08-04T05:11:48.227Z,98475.22
2022-08-04T05:14:41.938Z,98472.50
2022-08-04T05:17:27.930Z,98481.44
2022-08-04T05:20:08.372Z,98471.63
2022-08-04T05:22:59.137Z,98473.34
2022-08-04T05:25:31.896Z,98473.28
2022-08-04T05:28:15.170Z,98471.63
2022-08-04T05:30:49.289Z,98464.69
2022-08-04T05:33:26.007Z,98463.22
2022-08-04T05:36:18.752Z,98462.28
2022-08-04T05:38:49.487Z,98466.13
2022-08-04T05:41:16.484Z,98458.41
2022-08-04T05:43:45.208Z,98461.81
2022-08-04T05:46:12.708Z,98462.28
2022-08-04T05:48:41.524Z,98461.13
2022-08-04T05:51:10.937Z,98461.44
2022-08-04T05:53:44.237Z,98455.94
2022-08-04T05:56:13.179Z,98462.44
2022-08-04T05:58:41.518Z,98464.00
2022-08-04T06:01:10.765Z,98465.38
2022-08-04T06:03:38.580Z,98470.00
2022-08-04T06:06:06.848Z,98476.03
2022-08-04T06:08:33.697Z,98474.44
2022-08-04T06:11:05.036Z,98463.69
2022-08-04T06:13:48.701Z,98464.72
2022-08-04T06:16:29.901Z,98471.19
2022-08-04T06:20:00.116Z,98475.63
2022-08-04T06:21:49.912Z,98464.91
2022-08-04T06:24:20.387Z,98461.56
2022-08-04T06:26:49.693Z,98469.31
2022-08-04T06:29:30.722Z,98476.41
2022-08-04T06:32:27.559Z,98479.88
2022-08-04T06:34:47.460Z,98481.31
2022-08-04T06:37:40.812Z,98474.00
2022-08-04T06:40:29.918Z,98477.19
2022-08-04T06:42:52.587Z,98471.06
2022-08-04T06:45:20.624Z,98466.72
2022-08-04T06:47:48.618Z,98475.53
2022-08-04T06:51:30.650Z,98472.72
2022-08-04T06:53:03.719Z,98469.94
2022-08-04T06:55:31.802Z,98473.44
2022-08-04T06:58:02.827Z,98477.53
2022-08-04T07:00:32.164Z,98473.63
2022-08-04T07:02:59.373Z,98473.03
2022-08-04T07:05:26.415Z,98475.88
2022-08-04T07:07:57.978Z,98478.22
2022-08-04T07:10:29.078Z,98471.94
2022-08-04T07:13:00.086Z,98468.81
2022-08-04T07:15:27.579Z,98464.84
2022-08-04T07:18:00.220Z,98468.88
2022-08-04T07:20:34.632Z,98461.63
2022-08-04T07:23:05.808Z,98447.72
2022-08-04T07:25:59.718Z,98451.53
2022-08-04T07:28:27.078Z,98452.03
2022-08-04T07:30:57.384Z,98459.50
2022-08-04T07:33:25.807Z,98447.03
2022-08-04T07:36:04.592Z,98452.56
2022-08-04T07:38:50.721Z,98448.94
2022-08-04T07:41:39.392Z,98447.03
2022-08-04T07:44:07.518Z,98453.88
2022-08-04T07:46:34.433Z,98449.31
2022-08-04T07:49:01.647Z,98447.00
2022-08-04T07:51:30.665Z,98447.25
2022-08-04T07:53:58.042Z,98440.31
2022-08-04T07:56:28.545Z,98446.09
2022-08-04T07:58:59.246Z,98439.72
2022-08-04T08:01:26.881Z,98449.38
2022-08-04T08:03:55.862Z,98437.25
2022-08-04T08:06:32.988Z,98440.97
2022-08-04T08:09:02.197Z,98441.78
2022-08-04T08:12:36.636Z,98434.94
2022-08-04T08:14:41.128Z,98435.56
2022-08-04T08:17:07.624Z,98434.00
2022-08-04T08:19:35.462Z,98430.47
2022-08-04T08:22:02.365Z,98434.66
2022-08-04T08:24:30.333Z,98424.50
2022-08-04T08:26:57.493Z,98430.22
2022-08-04T08:29:25.874Z,98429.88
2022-08-04T08:31:57.302Z,98429.25
2022-08-04T08:34:27.959Z,98420.34
2022-08-04T08:37:04.735Z,98414.56
2022-08-04T08:39:49.594Z,98418.56
2022-08-04T08:42:34.732Z,98415.50
2022-08-04T08:45:31.233Z,98415.06
2022-08-04T08:48:16.276Z,98418.16
2022-08-04T08:51:01.928Z,98417.91
2022-08-04T08:53:59.436Z,98414.59
2022-08-04T08:56:33.789Z,98414.59
2022-08-04T08:59:03.203Z,98413.38
2022-08-04T09:01:57.221Z,98411.59
2022-08-04T09:04:40.717Z,98415.38
2022-08-04T09:07:43.022Z,98411.38
2022-08-04T09:10:20.384Z,98419.63
2022-08-04T09:12:57.595Z,98422.13
2022-08-04T09:15:36.243Z,98409.28
2022-08-04T09:18:09.311Z,98407.91
2022-08-04T09:20:53.391Z,98403.50
2022-08-04T09:23:49.468Z,98404.75
2022-08-04T09:26:27.508Z,98403.97
2022-08-04T09:29:18.262Z,98398.16
2022-08-04T09:32:07.199Z,98399.41
2022-08-04T09:34:46.348Z,98398.91
2022-08-04T09:37:48.533Z,98402.88
2022-08-04T09:40:31.425Z,98394.09
2022-08-04T09:43:57.065Z,98402.84
2022-08-04T09:46:25.134Z,98396.16
2022-08-04T09:49:07.504Z,98395.03
2022-08-04T09:51:57.443Z,98401.84
2022-08-04T09:54:49.272Z,98400.47
2022-08-04T09:57:21.653Z,98398.13
2022-08-04T10:00:10.087Z,98397.94
2022-08-04T10:02:43.961Z,98394.06
2022-08-04T10:05:16.268Z,98393.28
2022-08-04T10:08:16.198Z,98386.50
2022-08-04T10:10:55.268Z,98380.47
2022-08-04T10:13:32.614Z,98367.38
2022-08-04T10:16:36.748Z,98373.66
2022-08-04T10:19:12.266Z,98360.16
2022-08-04T10:22:27.086Z,98363.63
2022-08-04T10:25:05.585Z,98360.97
2022-08-04T10:27:57.639Z,98350.19
2022-08-04T10:30:26.076Z,98362.56
2022-08-04T10:32:58.553Z,98349.00
2022-08-04T10:35:27.884Z,98353.28
2022-08-04T10:38:13.716Z,98355.22
2022-08-04T10:40:49.269Z,98353.25
2022-08-04T10:43:29.393Z,98348.97
2022-08-04T10:45:59.914Z,98347.84
2022-08-04T10:48:41.256Z,98341.66
2022-08-04T10:51:58.815Z,98339.72
2022-08-04T10:54:54.290Z,98334.69
2022-08-04T10:57:29.475Z,98336.25
2022-08-04T11:00:19.814Z,98328.13
2022-08-04T11:02:52.654Z,98328.09
2022-08-04T11:05:44.675Z,98321.13
2022-08-04T11:08:27.043Z,98321.91
2022-08-04T11:11:05.661Z,98320.72
2022-08-04T11:13:45.045Z,98323.47
2022-08-04T11:16:36.648Z,98323.88
2022-08-04T11:19:45.197Z,98323.44
2022-08-04T11:22:23.270Z,98320.75
2022-08-04T11:25:07.359Z,98321.50
2022-08-04T11:28:09.624Z,98324.25
2022-08-04T11:31:03.628Z,98318.81
2022-08-04T11:33:45.733Z,98319.53
2022-08-04T11:36:34.672Z,98319.16
2022-08-04T11:39:14.037Z,98316.44
2022-08-04T11:41:58.171Z,98312.16
2022-08-04T11:44:59.916Z,98323.03
2022-08-04T11:47:53.021Z,98315.66
2022-08-04T11:50:48.226Z,98312.06
2022-08-04T11:53:20.929Z,98310.44
2022-08-04T11:56:07.097Z,98308.81
2022-08-04T11:58:35.588Z,98309.59
2022-08-04T12:01:25.614Z,98312.50
2022-08-04T12:04:17.228Z,98314.00
2022-08-04T12:07:30.999Z,98304.22
2022-08-04T12:10:37.991Z,98295.63
2022-08-04T12:13:28.519Z,98290.94
2022-08-04T12:16:10.782Z,98292.56
2022-08-04T12:18:53.345Z,98296.00
2022-08-04T12:21:29.442Z,98299.88
2022-08-04T12:24:05.919Z,98293.59
2022-08-04T12:26:42.739Z,98294.38
2022-08-04T12:29:11.787Z,98290.59
2022-08-04T12:31:51.369Z,98278.22
2022-08-04T12:34:32.134Z,98286.31
2022-08-04T12:37:09.236Z,98281.88
2022-08-04T12:40:21.416Z,98278.44
2022-08-04T12:43:02.359Z,98271.88
2022-08-04T12:45:30.241Z,98276.28
2022-08-04T12:47:59.999Z,98275.69
2022-08-04T12:50:27.126Z,98272.41
2022-08-04T12:53:02.624Z,98275.50
2022-08-04T12:55:31.831Z,98269.34
2022-08-04T12:58:01.690Z,98263.97
2022-08-04T13:00:39.705Z,98262.97
2022-08-04T13:03:11.550Z,98265.00
2022-08-04T13:05:41.595Z,98251.81
2022-08-04T13:08:11.761Z,98257.84
2022-08-04T13:10:41.322Z,98252.56
2022-08-04T13:13:16.019Z,98255.97
2022-08-04T13:15:47.308Z,98258.28
2022-08-04T13:18:28.962Z,98249.38
2022-08-04T13:21:16.861Z,98249.78
2022-08-04T13:24:10.252Z,98246.78
2022-08-04T13:26:57.399Z,98251.59
2022-08-04T13:30:00.784Z,98241.69
2022-08-04T13:32:23.077Z,98250.53
2022-08-04T13:34:53.881Z,98237.84
2022-08-04T13:37:26.902Z,98238.59
2022-08-04T13:39:56.158Z,98232.53
2022-08-04T13:42:25.986Z,98233.97
2022-08-04T13:45:01.186Z,98231.75
2022-08-04T13:47:37.207Z,98228.59
2022-08-04T13:50:17.866Z,98226.22
2022-08-04T13:52:47.215Z,98225.34
2022-08-04T13:55:40.987Z,98219.06
2022-08-04T13:58:11.249Z,98219.78
2022-08-04T14:01:03.744Z,98213.13
2022-08-04T14:03:53.888Z,98208.41
2022-08-04T14:06:25.690Z,98205.25
2022-08-04T14:09:10.931Z,98205.56
2022-08-04T14:12:09.879Z,98212.28
2022-08-04T14:14:31.279Z,98196.41
2022-08-04T14:17:05.914Z,98199.69
2022-08-04T14:20:00.297Z,98193.44
2022-08-04T14:22:26.967Z,98195.84
2022-08-04T14:25:16.087Z,98188.41
2022-08-04T14:27:54.722Z,98188.72
2022-08-04T14:30:26.275Z,98186.28
2022-08-04T14:34:04.285Z,98185.53
2022-08-04T14:36:01.699Z,98183.47
2022-08-04T14:38:50.052Z,98174.94
2022-08-04T14:41:19.664Z,98174.63
2022-08-04T14:43:54.922Z,98173.88
2022-08-04T14:46:22.824Z,98182.22
2022-08-04T14:49:15.946Z,98175.31
2022-08-04T14:52:01.609Z,98171.59
2022-08-04T14:54:35.420Z,98165.47
2022-08-04T14:57:06.001Z,98163.47
2022-08-04T15:00:01.730Z,98162.34
2022-08-04T15:02:40.198Z,98164.97
2022-08-04T15:05:55.366Z,98163.94
2022-08-04T15:08:02.053Z,98167.59
2022-08-04T15:11:49.597Z,98166.34
2022-08-04T15:17:30.241Z,98158.00
2022-08-04T15:26:37.856Z,98147.88
2022-08-04T15:29:59.147Z,98148.06
2022-08-04T15:36:32.138Z,98150.69
2022-08-04T15:39:55.490Z,98132.72
2022-08-04T15:42:32.840Z,98139.00
2022-08-04T15:46:02.392Z,98133.91
2022-08-04T15:48:17.432Z,98125.50
2022-08-04T15:50:56.047Z,98125.88
2022-08-04T15:53:53.497Z,98118.03
2022-08-04T15:56:24.388Z,98115.28
2022-08-04T15:58:57.216Z,98108.56
2022-08-04T16:01:24.840Z,98108.63
2022-08-04T16:03:54.561Z,98105.31
2022-08-04T16:06:28.923Z,98108.34
2022-08-04T16:09:01.789Z,98108.66
2022-08-04T16:11:37.115Z,98105.53
2022-08-04T16:14:07.766Z,98101.81
2022-08-04T16:16:41.029Z,98105.19
2022-08-04T16:19:13.840Z,98097.88
2022-08-04T16:21:54.664Z,98113.47
2022-08-04T16:24:55.319Z,98094.47
2022-08-04T16:27:39.210Z,98096.34
2022-08-04T16:30:13.589Z,98095.84
2022-08-04T16:32:43.704Z,98101.91
2022-08-04T16:35:24.208Z,98096.84
2022-08-04T16:37:54.970Z,98100.31
2022-08-04T16:40:36.460Z,98090.78
2022-08-04T16:43:10.201Z,98100.28
2022-08-04T16:45:47.672Z,98093.22
2022-08-04T16:48:22.504Z,98079.56
2022-08-04T16:51:12.215Z,98083.19
2022-08-04T16:53:57.945Z,98088.00
2022-08-04T16:56:34.478Z,98090.09
2022-08-04T16:59:13.402Z,98081.25
2022-08-04T17:01:49.111Z,98091.88
2022-08-04T17:04:18.509Z,98080.81
2022-08-04T17:06:49.572Z,98080.72
2022-08-04T17:09:22.399Z,98082.88
2022-08-04T17:11:55.707Z,98080.34
2022-08-04T17:14:50.779Z,98083.19
2022-08-04T17:17:24.749Z,98067.47
2022-08-04T17:20:13.629Z,98072.56
2022-08-04T17:22:40.984Z,98070.00
2022-08-04T17:25:08.104Z,98070.06
2022-08-04T17:28:09.180Z,98069.72
2022-08-04T17:30:27.686Z,98072.44
2022-08-04T17:32:56.142Z,98070.16
2022-08-04T17:35:23.153Z,98060.50
2022-08-04T17:37:52.280Z,98059.84
2022-08-04T17:40:25.675Z,98055.97
2022-08-04T17:44:03.506Z,98062.97
2022-08-04T17:46:18.920Z,98059.91
2022-08-04T17:49:18.375Z,98060.69
2022-08-04T17:52:04.179Z,98065.75
2022-08-04T17:54:37.248Z,98063.41
2022-08-04T17:57:24.931Z,98057.25
2022-08-04T17:59:56.291Z,98063.06
2022-08-04T18:02:31.891Z,98064.19
2022-08-04T18:05:11.867Z,98066.13
2022-08-04T18:08:35.500Z,98061.88
2022-08-04T18:10:55.476Z,98076.16
2022-08-04T18:13:42.637Z,98069.19
2022-08-04T18:16:22.396Z,98074.19
2022-08-04T18:19:10.905Z,98071.81
2022-08-04T18:21:46.374Z,98071.75
2022-08-04T18:24:34.482Z,98069.81
2022-08-04T18:30:32.458Z,98067.75
2022-08-04T18:32:57.284Z,98070.06
2022-08-04T18:36:31.219Z,98067.34
2022-08-04T18:38:23.789Z,98077.22
2022-08-04T18:40:54.212Z,98078.69
2022-08-04T18:43:28.472Z,98085.16
2022-08-04T18:45:57.737Z,98087.06
2022-08-04T18:48:36.153Z,98092.75
2022-08-04T18:51:10.660Z,98091.84
2022-08-04T18:53:58.416Z,98092.53
2022-08-04T18:56:29.667Z,98094.41
2022-08-04T18:59:03.826Z,98098.50
2022-08-04T19:02:13.575Z,98099.53
2022-08-04T19:04:33.814Z,98103.22
2022-08-04T19:07:33.811Z,98101.22
2022-08-04T19:09:58.131Z,98101.03
2022-08-04T19:12:26.816Z,98102.94
2022-08-04T19:15:10.240Z,98107.31
2022-08-04T19:17:53.490Z,98110.59
2022-08-04T19:20:28.279Z,98104.38
2022-08-04T19:24:26.958Z,98105.41
2022-08-04T19:26:01.912Z,98117.22
2022-08-04T19:28:33.949Z,98117.03
2022-08-04T19:31:10.096Z,98115.72
2022-08-04T19:33:58.662Z,98124.06
2022-08-04T19:36:37.196Z,98121.63
2022-08-04T19:39:11.854Z,98122.50
2022-08-04T19:42:05.831Z,98122.03
2022-08-04T19:44:30.550Z,98123.44
2022-08-04T19:47:00.863Z,98132.88
2022-08-04T19:50:05.314Z,98123.69
2022-08-04T19:52:34.205Z,98132.06
2022-08-04T19:55:10.025Z,98137.59
2022-08-04T19:57:41.454Z,98137.53
2022-08-04T20:00:10.115Z,98135.13
2022-08-04T20:02:40.086Z,98139.13
2022-08-04T20:05:08.888Z,98141.25
2022-08-04T20:07:38.661Z,98135.22
2022-08-04T20:10:12.968Z,98141.00
2022-08-04T20:12:42.069Z,98138.50
2022-08-04T20:15:12.478Z,98143.25
2022-08-04T20:17:55.826Z,98141.13
2022-08-04T20:20:31.592Z,98141.53
2022-08-04T20:22:58.464Z,98149.25
2022-08-04T20:25:36.400Z,98147.88
2022-08-04T20:28:03.842Z,98151.38
2022-08-04T20:30:55.717Z,98154.38
2022-08-04T20:33:22.946Z,98155.94
2022-08-04T20:36:05.546Z,98153.75
2022-08-04T20:38:34.198Z,98158.91
2022-08-04T20:41:01.944Z,98155.97
2022-08-04T20:43:31.373Z,98154.75
2022-08-04T20:45:59.373Z,98151.47
2022-08-04T20:48:33.564Z,98154.22
2022-08-04T20:51:00.491Z,98156.69
2022-08-04T20:53:32.566Z,98153.00
2022-08-04T20:56:19.333Z,98147.88
2022-08-04T20:58:57.805Z,98151.84
2022-08-04T21:01:27.250Z,98157.78
2022-08-04T21:04:27.200Z,98152.56
2022-08-04T21:06:57.358Z,98163.47
2022-08-04T21:09:37.106Z,98165.25
2022-08-04T21:12:06.375Z,98159.22
2022-08-04T21:14:33.626Z,98162.13
2022-08-04T21:17:02.954Z,98163.72
2022-08-04T21:19:33.142Z,98164.50
2022-08-04T21:22:06.675Z,98164.94
2022-08-04T21:24:37.689Z,98158.00
2022-08-04T21:27:06.763Z,98161.28
2022-08-04T21:29:36.925Z,98164.75
2022-08-04T21:32:05.970Z,98160.97
2022-08-04T21:34:38.203Z,98164.09
2022-08-04T21:37:07.018Z,98165.78
2022-08-04T21:39:50.265Z,98163.44
2022-08-04T21:42:28.845Z,98164.31
2022-08-04T21:44:56.622Z,98161.22
2022-08-04T21:47:23.891Z,98160.66
2022-08-04T21:49:56.590Z,98164.44
2022-08-04T21:52:24.270Z,98167.34
2022-08-04T21:54:56.873Z,98164.34
2022-08-04T21:57:25.266Z,98166.00
2022-08-04T21:59:52.650Z,98166.88
2022-08-04T22:02:19.438Z,98167.56
2022-08-04T22:04:48.146Z,98167.56
2022-08-04T22:07:14.859Z,98164.66
2022-08-04T22:10:00.547Z,98169.00
2022-08-04T22:12:29.938Z,98174.75
2022-08-04T22:14:59.179Z,98169.97
2022-08-04T22:17:26.985Z,98175.78
2022-08-04T22:20:02.387Z,98175.31
2022-08-04T22:22:31.793Z,98166.94
2022-08-04T22:25:12.455Z,98160.59
2022-08-04T22:28:01.425Z,98157.56
2022-08-04T22:30:36.532Z,98165.34
2022-08-04T22:33:07.378Z,98166.56
2022-08-04T22:35:49.417Z,98163.22
2022-08-04T22:38:24.282Z,98160.88
2022-08-04T22:41:01.204Z,98168.31
2022-08-04T22:43:33.812Z,98168.25
2022-08-04T22:46:05.185Z,98165.72
2022-08-04T22:48:33.782Z,98156.94
2022-08-04T22:51:02.757Z,98156.47
2022-08-04T22:53:30.514Z,98158.03
2022-08-04T22:56:10.033Z,98150.56
2022-08-04T22:58:45.525Z,98155.28
2022-08-04T23:01:18.092Z,98158.47
2022-08-04T23:03:55.149Z,98149.44
2022-08-04T23:06:25.437Z,98149.97
2022-08-04T23:08:52.560Z,98150.63
2022-08-04T23:11:19.423Z,98152.06
2022-08-04T23:13:45.929Z,98149.03
2022-08-04T23:16:14.155Z,98152.13
2022-08-04T23:18:42.058Z,98155.56
2022-08-04T23:21:11.751Z,98154.41
2022-08-04T23:23:45.394Z,98149.72
2022-08-04T23:26:27.361Z,98149.25
2022-08-04T23:28:54.949Z,98149.91
2022-08-04T23:31:21.400Z,98149.91
2022-08-04T23:33:49.389Z,98154.47
2022-08-04T23:36:17.654Z,98143.81
2022-08-04T23:38:44.220Z,98153.41
2022-08-04T23:41:17.257Z,98147.91
2022-08-04T23:43:54.899Z,98144.44
2022-08-04T23:46:21.728Z,98150.44
2022-08-04T23:48:48.863Z,98149.97
2022-08-04T23:51:15.786Z,98143.72
2022-08-04T23:54:02.607Z,98144.84
2022-08-04T23:56:32.859Z,98141.44
2022-08-04T23:59:03.375Z,98152.56
